This is the latest recevied weather packets stored in our database for station/object WX1N. If no packets are shown the sender has not sent any weather packets the latest 10 day(s).
| Time | Temp. | Humidity | Pressure | Rain* | Wind** | Luminosity | Snow |
|---|---|---|---|---|---|---|---|
| 1777505704 | 15° C | 56% | 1008.8 hPa | 0 mm | - | - | - |
| 1777503004 | 16.11° C | 55% | 1008.9 hPa | 0 mm | - | - | - |
| 1777502104 | 16.67° C | 52% | 1008.8 hPa | 0 mm | - | - | - |
| 1777498504 | 17.78° C | 53% | 1009.3 hPa | 0 mm | - | - | - |
| 1777497004 | 18.33° C | 53% | 1009.2 hPa | 0 mm | - | - | - |
| 1777496404 | 18.33° C | 52% | 1009.3 hPa | 0 mm | - | - | - |
| 1777496103 | 18.89° C | 53% | 1009.2 hPa | 0 mm | - | - | - |
| 1777488904 | 21.11° C | 47% | 1010.4 hPa | 0 mm | - | - | - |
| 1777487404 | 21.11° C | 50% | 1010.7 hPa | 0 mm | - | - | - |
| 1777485304 | 20° C | 46% | 1011.1 hPa | 0 mm | - | - | - |
| 1777483503 | 20.56° C | 51% | 1011.5 hPa | 0 mm | - | - | - |
| 1777483204 | 20.56° C | 49% | 1011.4 hPa | 0 mm | - | - | - |
| 1777481704 | 19.44° C | 53% | 1011.7 hPa | 0 mm | - | - | - |
| 1777480204 | 19.44° C | 52% | 1012 hPa | 0 mm | - | - | - |
| 1777479304 | 18.33° C | 53% | 1012 hPa | 0 mm | - | - | - |
| 1777478704 | 18.89° C | 50% | 1012.1 hPa | 0 mm | - | - | - |
| 1777475404 | 16.11° C | 59% | 1013.2 hPa | 0 mm | - | - | - |
| 1777469404 | 11.11° C | 72% | 1015.7 hPa | 0 mm | - | - | - |
| 1777469103 | 10.56° C | 72% | 1015.9 hPa | 0 mm | - | - | - |
| 1777468804 | 10.56° C | 73% | 1015.8 hPa | 0 mm | - | - | - |
| 1777468504 | 10.56° C | 73% | 1015.8 hPa | 0 mm | - | - | - |
| 1777467904 | 10° C | 74% | 1015.8 hPa | 0 mm | - | - | - |
| 1777467304 | 10° C | 72% | 1015.8 hPa | 0 mm | - | - | - |
| 1777465804 | 10° C | 72% | 1016.1 hPa | 0 mm | - | - | - |
| 1777465203 | 10° C | 76% | 1016.2 hPa | 0 mm | - | - | - |
* Rain latest hour (hover to see other rain measurements)
** Current wind speed in m/s (hover to see current wind gust speed)